sensor_id;sensor_type;location;lat;lon;timestamp;pressure;altitude;pressure_sealevel;temperature;humidity
64211;BME280;50528;48.514;14.394;2023-04-25T00:00:02;93189.73;;;5.89;76.45
64211;BME280;50528;48.514;14.394;2023-04-25T00:01:04;93183.65;;;5.83;76.56
64211;BME280;50528;48.514;14.394;2023-04-25T00:01:42;93183.95;;;5.80;76.64
64211;BME280;50528;48.514;14.394;2023-04-25T00:02:18;93184.64;;;5.80;76.58
64211;BME280;50528;48.514;14.394;2023-04-25T00:02:55;93183.32;;;5.79;76.64
64211;BME280;50528;48.514;14.394;2023-04-25T00:03:30;93184.45;;;5.79;76.71
64211;BME280;50528;48.514;14.394;2023-04-25T00:04:05;93181.45;;;5.80;76.87
64211;BME280;50528;48.514;14.394;2023-04-25T00:04:39;93180.90;;;5.84;76.63
64211;BME280;50528;48.514;14.394;2023-04-25T00:05:14;93179.26;;;5.87;76.53
64211;BME280;50528;48.514;14.394;2023-04-25T00:05:49;93183.97;;;5.83;76.65
64211;BME280;50528;48.514;14.394;2023-04-25T00:06:23;93173.05;;;5.90;76.55
64211;BME280;50528;48.514;14.394;2023-04-25T00:06:59;93173.77;;;5.89;76.47
64211;BME280;50528;48.514;14.394;2023-04-25T00:07:36;93172.48;;;5.80;76.45
64211;BME280;50528;48.514;14.394;2023-04-25T00:08:10;93174.89;;;5.86;76.50
64211;BME280;50528;48.514;14.394;2023-04-25T00:08:44;93182.27;;;5.85;76.52
64211;BME280;50528;48.514;14.394;2023-04-25T00:09:17;93184.06;;;5.86;76.57
64211;BME280;50528;48.514;14.394;2023-04-25T00:09:50;93177.84;;;5.87;76.54
64211;BME280;50528;48.514;14.394;2023-04-25T00:10:24;93177.40;;;5.83;76.51
64211;BME280;50528;48.514;14.394;2023-04-25T00:10:58;93178.36;;;5.81;76.54
64211;BME280;50528;48.514;14.394;2023-04-25T00:11:32;93178.60;;;5.84;76.43
64211;BME280;50528;48.514;14.394;2023-04-25T00:12:06;93178.42;;;5.82;76.51
64211;BME280;50528;48.514;14.394;2023-04-25T00:12:39;93177.14;;;5.80;76.45
64211;BME280;50528;48.514;14.394;2023-04-25T00:13:15;93175.66;;;5.82;76.61
64211;BME280;50528;48.514;14.394;2023-04-25T00:13:50;93177.65;;;5.82;76.64
64211;BME280;50528;48.514;14.394;2023-04-25T00:14:23;93177.58;;;5.82;76.46
64211;BME280;50528;48.514;14.394;2023-04-25T00:14:58;93173.15;;;5.79;76.44
64211;BME280;50528;48.514;14.394;2023-04-25T00:15:35;93174.45;;;5.76;76.50
64211;BME280;50528;48.514;14.394;2023-04-25T00:16:12;93176.05;;;5.72;76.65
64211;BME280;50528;48.514;14.394;2023-04-25T00:16:48;93176.51;;;5.71;76.55
64211;BME280;50528;48.514;14.394;2023-04-25T00:17:24;93177.59;;;5.70;76.65
64211;BME280;50528;48.514;14.394;2023-04-25T00:17:58;93175.81;;;5.70;76.64
64211;BME280;50528;48.514;14.394;2023-04-25T00:18:31;93180.17;;;5.69;76.60
64211;BME280;50528;48.514;14.394;2023-04-25T00:19:06;93178.58;;;5.68;76.66
64211;BME280;50528;48.514;14.394;2023-04-25T00:19:40;93177.70;;;5.68;76.72
64211;BME280;50528;48.514;14.394;2023-04-25T00:20:14;93176.66;;;5.68;76.72
64211;BME280;50528;48.514;14.394;2023-04-25T00:20:48;93178.38;;;5.68;76.68
64211;BME280;50528;48.514;14.394;2023-04-25T00:21:21;93181.42;;;5.69;76.68
64211;BME280;50528;48.514;14.394;2023-04-25T00:21:57;93178.27;;;5.70;76.76
64211;BME280;50528;48.514;14.394;2023-04-25T00:22:31;93182.86;;;5.69;76.69
64211;BME280;50528;48.514;14.394;2023-04-25T00:23:06;93180.51;;;5.68;76.80
64211;BME280;50528;48.514;14.394;2023-04-25T00:23:40;93180.48;;;5.69;76.81
64211;BME280;50528;48.514;14.394;2023-04-25T00:24:14;93183.93;;;5.69;76.81
64211;BME280;50528;48.514;14.394;2023-04-25T00:24:48;93179.34;;;5.69;76.84
64211;BME280;50528;48.514;14.394;2023-04-25T00:25:21;93180.04;;;5.70;76.80
64211;BME280;50528;48.514;14.394;2023-04-25T00:25:55;93184.05;;;5.70;76.76
64211;BME280;50528;48.514;14.394;2023-04-25T00:26:28;93180.03;;;5.70;76.82
64211;BME280;50528;48.514;14.394;2023-04-25T00:27:01;93180.77;;;5.71;76.81
64211;BME280;50528;48.514;14.394;2023-04-25T00:27:35;93185.61;;;5.70;76.80
64211;BME280;50528;48.514;14.394;2023-04-25T00:28:08;93185.09;;;5.70;76.86
64211;BME280;50528;48.514;14.394;2023-04-25T00:28:42;93185.63;;;5.72;76.87
64211;BME280;50528;48.514;14.394;2023-04-25T00:29:15;93185.27;;;5.72;76.85
64211;BME280;50528;48.514;14.394;2023-04-25T00:29:48;93185.89;;;5.72;76.85
64211;BME280;50528;48.514;14.394;2023-04-25T00:30:22;93187.67;;;5.69;76.82
64211;BME280;50528;48.514;14.394;2023-04-25T00:30:55;93189.67;;;5.70;76.85
64211;BME280;50528;48.514;14.394;2023-04-25T00:31:29;93187.23;;;5.70;76.82
64211;BME280;50528;48.514;14.394;2023-04-25T00:32:02;93185.92;;;5.68;76.81
64211;BME280;50528;48.514;14.394;2023-04-25T00:32:36;93188.62;;;5.67;76.85
64211;BME280;50528;48.514;14.394;2023-04-25T00:33:10;93185.85;;;5.67;76.86
64211;BME280;50528;48.514;14.394;2023-04-25T00:33:43;93187.17;;;5.68;76.92
64211;BME280;50528;48.514;14.394;2023-04-25T00:34:17;93180.70;;;5.67;76.91
64211;BME280;50528;48.514;14.394;2023-04-25T00:34:50;93180.02;;;5.69;76.96
64211;BME280;50528;48.514;14.394;2023-04-25T00:35:24;93182.71;;;5.68;76.92
64211;BME280;50528;48.514;14.394;2023-04-25T00:35:57;93177.84;;;5.70;76.93
64211;BME280;50528;48.514;14.394;2023-04-25T00:36:31;93182.09;;;5.72;76.71
64211;BME280;50528;48.514;14.394;2023-04-25T00:37:04;93181.06;;;5.68;76.86
64211;BME280;50528;48.514;14.394;2023-04-25T00:37:42;93182.83;;;5.67;76.77
64211;BME280;50528;48.514;14.394;2023-04-25T00:38:15;93180.76;;;5.64;76.89
64211;BME280;50528;48.514;14.394;2023-04-25T00:38:49;93180.41;;;5.63;76.91
64211;BME280;50528;48.514;14.394;2023-04-25T00:39:23;93172.05;;;5.56;76.91
64211;BME280;50528;48.514;14.394;2023-04-25T00:39:58;93184.27;;;5.63;76.98
64211;BME280;50528;48.514;14.394;2023-04-25T00:40:31;93183.64;;;5.63;76.90
64211;BME280;50528;48.514;14.394;2023-04-25T00:41:07;93182.30;;;5.66;76.98
64211;BME280;50528;48.514;14.394;2023-04-25T00:41:41;93184.58;;;5.65;76.92
64211;BME280;50528;48.514;14.394;2023-04-25T00:42:15;93179.92;;;5.64;76.93
64211;BME280;50528;48.514;14.394;2023-04-25T00:42:50;93176.17;;;5.62;76.85
64211;BME280;50528;48.514;14.394;2023-04-25T00:43:28;93179.67;;;5.62;76.92
64211;BME280;50528;48.514;14.394;2023-04-25T00:44:04;93176.39;;;5.60;76.93
64211;BME280;50528;48.514;14.394;2023-04-25T00:44:40;93174.84;;;5.58;76.99
64211;BME280;50528;48.514;14.394;2023-04-25T00:45:14;93178.15;;;5.57;76.91
64211;BME280;50528;48.514;14.394;2023-04-25T00:45:48;93174.48;;;5.58;77.02
64211;BME280;50528;48.514;14.394;2023-04-25T00:46:23;93168.90;;;5.55;76.88
64211;BME280;50528;48.514;14.394;2023-04-25T00:46:57;93172.30;;;5.56;76.99
64211;BME280;50528;48.514;14.394;2023-04-25T00:47:31;93174.20;;;5.55;76.99
64211;BME280;50528;48.514;14.394;2023-04-25T00:48:06;93175.17;;;5.53;76.95
64211;BME280;50528;48.514;14.394;2023-04-25T00:48:39;93171.17;;;5.51;76.97
64211;BME280;50528;48.514;14.394;2023-04-25T00:49:13;93171.87;;;5.52;76.98
64211;BME280;50528;48.514;14.394;2023-04-25T00:49:48;93172.20;;;5.51;77.04
64211;BME280;50528;48.514;14.394;2023-04-25T00:50:23;93172.68;;;5.51;76.98
64211;BME280;50528;48.514;14.394;2023-04-25T00:50:58;93172.86;;;5.50;76.99
64211;BME280;50528;48.514;14.394;2023-04-25T00:51:32;93170.12;;;5.45;76.95
64211;BME280;50528;48.514;14.394;2023-04-25T00:52:06;93173.45;;;5.45;76.98
64211;BME280;50528;48.514;14.394;2023-04-25T00:52:42;93168.73;;;5.47;76.95
64211;BME280;50528;48.514;14.394;2023-04-25T00:53:16;93173.57;;;5.46;76.97
64211;BME280;50528;48.514;14.394;2023-04-25T00:53:50;93173.06;;;5.44;76.97
64211;BME280;50528;48.514;14.394;2023-04-25T00:54:24;93171.73;;;5.43;77.00
64211;BME280;50528;48.514;14.394;2023-04-25T00:54:58;93168.58;;;5.44;77.05
64211;BME280;50528;48.514;14.394;2023-04-25T00:55:32;93167.79;;;5.44;77.02
64211;BME280;50528;48.514;14.394;2023-04-25T00:56:07;93173.63;;;5.44;77.06
64211;BME280;50528;48.514;14.394;2023-04-25T00:56:41;93172.99;;;5.44;77.10
64211;BME280;50528;48.514;14.394;2023-04-25T00:57:14;93175.28;;;5.43;76.98
64211;BME280;50528;48.514;14.394;2023-04-25T00:57:50;93175.03;;;5.44;77.16
64211;BME280;50528;48.514;14.394;2023-04-25T00:58:24;93171.52;;;5.43;77.05
64211;BME280;50528;48.514;14.394;2023-04-25T00:58:58;93171.38;;;5.44;77.08
64211;BME280;50528;48.514;14.394;2023-04-25T00:59:31;93174.77;;;5.43;77.02
64211;BME280;50528;48.514;14.394;2023-04-25T01:00:06;93174.83;;;5.44;77.07
64211;BME280;50528;48.514;14.394;2023-04-25T01:00:40;93175.17;;;5.43;77.04
64211;BME280;50528;48.514;14.394;2023-04-25T01:01:14;93177.09;;;5.43;77.02
64211;BME280;50528;48.514;14.394;2023-04-25T01:01:48;93175.95;;;5.42;77.02
64211;BME280;50528;48.514;14.394;2023-04-25T01:02:21;93174.96;;;5.43;77.08
64211;BME280;50528;48.514;14.394;2023-04-25T01:02:55;93173.97;;;5.43;77.07
64211;BME280;50528;48.514;14.394;2023-04-25T01:03:31;93176.65;;;5.44;77.00
64211;BME280;50528;48.514;14.394;2023-04-25T01:04:06;93177.19;;;5.41;76.98
64211;BME280;50528;48.514;14.394;2023-04-25T01:04:40;93174.79;;;5.42;77.00
64211;BME280;50528;48.514;14.394;2023-04-25T01:05:13;93177.16;;;5.40;77.01
64211;BME280;50528;48.514;14.394;2023-04-25T01:05:47;93174.04;;;5.40;76.99
64211;BME280;50528;48.514;14.394;2023-04-25T01:06:23;93162.30;;;5.32;77.02
64211;BME280;50528;48.514;14.394;2023-04-25T01:06:57;93173.15;;;5.38;76.95
64211;BME280;50528;48.514;14.394;2023-04-25T01:07:34;93174.05;;;5.36;76.90
64211;BME280;50528;48.514;14.394;2023-04-25T01:08:08;93174.08;;;5.34;76.91
64211;BME280;50528;48.514;14.394;2023-04-25T01:08:41;93172.68;;;5.32;76.94
64211;BME280;50528;48.514;14.394;2023-04-25T01:09:15;93173.64;;;5.35;76.92
64211;BME280;50528;48.514;14.394;2023-04-25T01:09:51;93175.09;;;5.35;76.86
64211;BME280;50528;48.514;14.394;2023-04-25T01:10:25;93172.63;;;5.34;76.97
64211;BME280;50528;48.514;14.394;2023-04-25T01:10:58;93175.84;;;5.34;76.91
64211;BME280;50528;48.514;14.394;2023-04-25T01:11:32;93175.02;;;5.32;76.92
64211;BME280;50528;48.514;14.394;2023-04-25T01:12:06;93173.71;;;5.32;76.91
64211;BME280;50528;48.514;14.394;2023-04-25T01:12:40;93172.83;;;5.34;76.83
64211;BME280;50528;48.514;14.394;2023-04-25T01:13:14;93173.20;;;5.30;76.86
64211;BME280;50528;48.514;14.394;2023-04-25T01:13:48;93172.61;;;5.26;76.90
64211;BME280;50528;48.514;14.394;2023-04-25T01:14:22;93173.88;;;5.25;76.92
64211;BME280;50528;48.514;14.394;2023-04-25T01:14:56;93173.60;;;5.24;76.87
64211;BME280;50528;48.514;14.394;2023-04-25T01:15:29;93173.62;;;5.24;76.82
64211;BME280;50528;48.514;14.394;2023-04-25T01:16:03;93176.05;;;5.23;76.81
64211;BME280;50528;48.514;14.394;2023-04-25T01:16:37;93177.80;;;5.22;76.86
64211;BME280;50528;48.514;14.394;2023-04-25T01:17:11;93168.78;;;5.17;76.76
64211;BME280;50528;48.514;14.394;2023-04-25T01:17:45;93173.98;;;5.19;76.79
64211;BME280;50528;48.514;14.394;2023-04-25T01:18:19;93172.41;;;5.18;76.79
64211;BME280;50528;48.514;14.394;2023-04-25T01:18:54;93170.33;;;5.17;76.75
64211;BME280;50528;48.514;14.394;2023-04-25T01:19:28;93174.50;;;5.16;76.79
64211;BME280;50528;48.514;14.394;2023-04-25T01:20:04;93174.36;;;5.15;76.70
64211;BME280;50528;48.514;14.394;2023-04-25T01:20:38;93171.95;;;5.15;76.72
64211;BME280;50528;48.514;14.394;2023-04-25T01:21:12;93172.03;;;5.13;76.80
64211;BME280;50528;48.514;14.394;2023-04-25T01:21:48;93168.73;;;5.12;76.68
64211;BME280;50528;48.514;14.394;2023-04-25T01:22:22;93170.16;;;5.10;76.71
64211;BME280;50528;48.514;14.394;2023-04-25T01:22:56;93168.53;;;5.10;76.75
64211;BME280;50528;48.514;14.394;2023-04-25T01:23:31;93170.00;;;5.10;76.72
64211;BME280;50528;48.514;14.394;2023-04-25T01:24:06;93170.65;;;5.07;76.78
64211;BME280;50528;48.514;14.394;2023-04-25T01:24:41;93168.40;;;5.06;76.76
64211;BME280;50528;48.514;14.394;2023-04-25T01:25:15;93163.54;;;5.05;76.81
64211;BME280;50528;48.514;14.394;2023-04-25T01:25:50;93159.83;;;5.02;76.79
64211;BME280;50528;48.514;14.394;2023-04-25T01:26:24;93161.36;;;5.04;76.75
64211;BME280;50528;48.514;14.394;2023-04-25T01:27:01;93148.68;;;4.93;76.69
64211;BME280;50528;48.514;14.394;2023-04-25T01:27:36;93156.92;;;5.00;76.80
64211;BME280;50528;48.514;14.394;2023-04-25T01:28:10;93162.82;;;5.01;76.86
64211;BME280;50528;48.514;14.394;2023-04-25T01:28:47;93162.08;;;4.97;76.72
64211;BME280;50528;48.514;14.394;2023-04-25T01:29:22;93169.09;;;4.94;76.80
64211;BME280;50528;48.514;14.394;2023-04-25T01:29:56;93169.10;;;4.92;76.91
64211;BME280;50528;48.514;14.394;2023-04-25T01:30:30;93167.83;;;4.91;76.87
64211;BME280;50528;48.514;14.394;2023-04-25T01:31:04;93169.86;;;4.89;76.85
64211;BME280;50528;48.514;14.394;2023-04-25T01:31:39;93166.27;;;4.89;76.89
64211;BME280;50528;48.514;14.394;2023-04-25T01:32:13;93163.61;;;4.89;76.76
64211;BME280;50528;48.514;14.394;2023-04-25T01:32:48;93153.67;;;4.84;76.72
64211;BME280;50528;48.514;14.394;2023-04-25T01:33:22;93160.27;;;4.84;76.91
64211;BME280;50528;48.514;14.394;2023-04-25T01:33:56;93160.95;;;4.84;76.88
64211;BME280;50528;48.514;14.394;2023-04-25T01:34:30;93161.94;;;4.83;76.90
64211;BME280;50528;48.514;14.394;2023-04-25T01:35:08;93164.55;;;4.84;77.03
64211;BME280;50528;48.514;14.394;2023-04-25T01:35:43;93164.23;;;4.83;76.91
64211;BME280;50528;48.514;14.394;2023-04-25T01:36:17;93162.39;;;4.80;77.02
64211;BME280;50528;48.514;14.394;2023-04-25T01:36:51;93164.70;;;4.79;77.07
64211;BME280;50528;48.514;14.394;2023-04-25T01:37:25;93165.57;;;4.79;77.19
64211;BME280;50528;48.514;14.394;2023-04-25T01:37:59;93162.30;;;4.76;77.10
64211;BME280;50528;48.514;14.394;2023-04-25T01:38:32;93165.51;;;4.73;77.25
64211;BME280;50528;48.514;14.394;2023-04-25T01:39:09;93164.84;;;4.72;77.42
64211;BME280;50528;48.514;14.394;2023-04-25T01:39:44;93165.78;;;4.72;77.36
64211;BME280;50528;48.514;14.394;2023-04-25T01:40:20;93162.36;;;4.69;77.39
64211;BME280;50528;48.514;14.394;2023-04-25T01:40:54;93161.48;;;4.70;77.47
64211;BME280;50528;48.514;14.394;2023-04-25T01:41:28;93162.59;;;4.78;77.40
64211;BME280;50528;48.514;14.394;2023-04-25T01:42:02;93161.10;;;4.74;77.44
64211;BME280;50528;48.514;14.394;2023-04-25T01:42:39;93159.94;;;4.74;77.52
64211;BME280;50528;48.514;14.394;2023-04-25T01:43:13;93157.62;;;4.69;77.62
64211;BME280;50528;48.514;14.394;2023-04-25T01:43:47;93156.65;;;4.70;77.76
64211;BME280;50528;48.514;14.394;2023-04-25T01:44:21;93157.80;;;4.70;77.81
64211;BME280;50528;48.514;14.394;2023-04-25T01:44:54;93158.86;;;4.69;77.79
64211;BME280;50528;48.514;14.394;2023-04-25T01:45:28;93158.59;;;4.69;77.90
64211;BME280;50528;48.514;14.394;2023-04-25T01:46:02;93155.70;;;4.69;77.98
64211;BME280;50528;48.514;14.394;2023-04-25T01:46:36;93156.75;;;4.68;78.04
64211;BME280;50528;48.514;14.394;2023-04-25T01:47:10;93153.13;;;4.67;78.02
64211;BME280;50528;48.514;14.394;2023-04-25T01:47:44;93150.80;;;4.67;78.09
64211;BME280;50528;48.514;14.394;2023-04-25T01:48:22;93148.63;;;4.66;78.07
64211;BME280;50528;48.514;14.394;2023-04-25T01:48:56;93151.20;;;4.67;78.07
64211;BME280;50528;48.514;14.394;2023-04-25T01:50:42;93144.09;;;4.60;78.12
64211;BME280;50528;48.514;14.394;2023-04-25T01:51:16;93143.58;;;4.58;78.02
64211;BME280;50528;48.514;14.394;2023-04-25T01:51:50;93146.23;;;4.56;78.13
64211;BME280;50528;48.514;14.394;2023-04-25T01:52:24;93143.75;;;4.57;78.22
64211;BME280;50528;48.514;14.394;2023-04-25T01:52:57;93141.33;;;4.58;78.21
64211;BME280;50528;48.514;14.394;2023-04-25T01:53:31;93136.27;;;4.55;78.27
64211;BME280;50528;48.514;14.394;2023-04-25T01:54:05;93141.20;;;4.56;78.38
64211;BME280;50528;48.514;14.394;2023-04-25T01:54:40;93140.66;;;4.54;78.45
64211;BME280;50528;48.514;14.394;2023-04-25T01:55:18;93136.41;;;4.54;78.45
64211;BME280;50528;48.514;14.394;2023-04-25T01:55:59;93135.15;;;4.56;78.53
64211;BME280;50528;48.514;14.394;2023-04-25T01:56:39;93133.54;;;4.54;78.64
64211;BME280;50528;48.514;14.394;2023-04-25T01:57:14;93135.01;;;4.53;78.70
64211;BME280;50528;48.514;14.394;2023-04-25T01:57:48;93131.41;;;4.53;78.77
64211;BME280;50528;48.514;14.394;2023-04-25T01:58:24;93130.95;;;4.51;78.81
64211;BME280;50528;48.514;14.394;2023-04-25T01:59:06;93136.46;;;4.52;78.78
64211;BME280;50528;48.514;14.394;2023-04-25T02:00:15;93133.90;;;4.49;78.77
64211;BME280;50528;48.514;14.394;2023-04-25T02:00:48;93131.59;;;4.50;78.97
64211;BME280;50528;48.514;14.394;2023-04-25T02:01:22;93134.33;;;4.54;78.92
64211;BME280;50528;48.514;14.394;2023-04-25T02:02:05;93137.46;;;4.52;78.91
64211;BME280;50528;48.514;14.394;2023-04-25T02:02:38;93138.00;;;4.50;79.04
64211;BME280;50528;48.514;14.394;2023-04-25T02:03:31;93137.92;;;4.46;78.95
64211;BME280;50528;48.514;14.394;2023-04-25T02:04:06;93139.06;;;4.49;79.04
64211;BME280;50528;48.514;14.394;2023-04-25T02:04:41;93139.26;;;4.48;78.94
64211;BME280;50528;48.514;14.394;2023-04-25T02:05:16;93137.90;;;4.49;79.05
64211;BME280;50528;48.514;14.394;2023-04-25T02:05:50;93133.52;;;4.46;79.30
64211;BME280;50528;48.514;14.394;2023-04-25T02:06:24;93136.73;;;4.50;79.19
64211;BME280;50528;48.514;14.394;2023-04-25T02:06:59;93143.49;;;4.50;79.24
64211;BME280;50528;48.514;14.394;2023-04-25T02:07:42;93141.75;;;4.49;79.16
64211;BME280;50528;48.514;14.394;2023-04-25T02:08:16;93142.58;;;4.48;79.32
64211;BME280;50528;48.514;14.394;2023-04-25T02:08:51;93141.80;;;4.48;79.28
64211;BME280;50528;48.514;14.394;2023-04-25T02:09:24;93143.56;;;4.48;79.22
64211;BME280;50528;48.514;14.394;2023-04-25T02:10:01;93144.08;;;4.48;79.26
64211;BME280;50528;48.514;14.394;2023-04-25T02:10:38;93142.48;;;4.48;79.34
64211;BME280;50528;48.514;14.394;2023-04-25T02:11:24;93142.55;;;4.47;79.37
64211;BME280;50528;48.514;14.394;2023-04-25T02:12:17;93140.63;;;4.45;79.31
64211;BME280;50528;48.514;14.394;2023-04-25T02:13:14;93143.48;;;4.44;79.37
64211;BME280;50528;48.514;14.394;2023-04-25T02:14:00;93139.06;;;4.45;79.57
64211;BME280;50528;48.514;14.394;2023-04-25T02:14:43;93140.48;;;4.43;79.22
64211;BME280;50528;48.514;14.394;2023-04-25T02:15:31;93137.23;;;4.39;79.36
64211;BME280;50528;48.514;14.394;2023-04-25T02:16:16;93136.44;;;4.39;79.42
64211;BME280;50528;48.514;14.394;2023-04-25T02:16:50;93134.75;;;4.40;79.44
64211;BME280;50528;48.514;14.394;2023-04-25T02:17:24;93132.42;;;4.40;79.45
64211;BME280;50528;48.514;14.394;2023-04-25T02:17:59;93133.98;;;4.40;79.43
64211;BME280;50528;48.514;14.394;2023-04-25T02:18:36;93123.35;;;4.30;79.57
64211;BME280;50528;48.514;14.394;2023-04-25T02:19:12;93134.48;;;4.39;79.65
64211;BME280;50528;48.514;14.394;2023-04-25T02:19:45;93131.34;;;4.41;79.64
64211;BME280;50528;48.514;14.394;2023-04-25T02:20:20;93128.73;;;4.42;79.68
64211;BME280;50528;48.514;14.394;2023-04-25T02:20:54;93131.00;;;4.43;79.74
64211;BME280;50528;48.514;14.394;2023-04-25T02:21:27;93130.70;;;4.45;79.73
64211;BME280;50528;48.514;14.394;2023-04-25T02:22:01;93128.30;;;4.45;79.68
64211;BME280;50528;48.514;14.394;2023-04-25T02:22:34;93132.44;;;4.46;79.78
64211;BME280;50528;48.514;14.394;2023-04-25T02:23:11;93132.64;;;4.48;79.74
64211;BME280;50528;48.514;14.394;2023-04-25T02:23:44;93130.52;;;4.46;79.78
64211;BME280;50528;48.514;14.394;2023-04-25T02:24:22;93133.76;;;4.46;79.78
64211;BME280;50528;48.514;14.394;2023-04-25T02:24:56;93137.13;;;4.46;79.77
64211;BME280;50528;48.514;14.394;2023-04-25T02:25:29;93134.87;;;4.47;79.82
64211;BME280;50528;48.514;14.394;2023-04-25T02:26:03;93136.10;;;4.49;79.86
64211;BME280;50528;48.514;14.394;2023-04-25T02:26:37;93133.52;;;4.55;79.85
64211;BME280;50528;48.514;14.394;2023-04-25T02:27:14;93137.54;;;4.52;79.84
64211;BME280;50528;48.514;14.394;2023-04-25T02:27:50;93136.77;;;4.53;79.97
64211;BME280;50528;48.514;14.394;2023-04-25T02:28:24;93137.29;;;4.53;79.99
64211;BME280;50528;48.514;14.394;2023-04-25T02:28:59;93134.16;;;4.53;79.92
64211;BME280;50528;48.514;14.394;2023-04-25T02:29:33;93133.58;;;4.52;79.93
64211;BME280;50528;48.514;14.394;2023-04-25T02:30:06;93134.17;;;4.53;79.99
64211;BME280;50528;48.514;14.394;2023-04-25T02:30:40;93132.93;;;4.52;80.04
64211;BME280;50528;48.514;14.394;2023-04-25T02:31:14;93135.01;;;4.54;80.07
64211;BME280;50528;48.514;14.394;2023-04-25T02:31:47;93132.50;;;4.57;80.06
64211;BME280;50528;48.514;14.394;2023-04-25T02:32:22;93131.10;;;4.57;80.08
64211;BME280;50528;48.514;14.394;2023-04-25T02:32:56;93126.92;;;4.61;80.17
64211;BME280;50528;48.514;14.394;2023-04-25T02:33:29;93125.01;;;4.64;80.04
64211;BME280;50528;48.514;14.394;2023-04-25T02:34:03;93121.16;;;4.64;80.00
64211;BME280;50528;48.514;14.394;2023-04-25T02:34:41;93129.16;;;4.61;80.02
64211;BME280;50528;48.514;14.394;2023-04-25T02:35:15;93129.89;;;4.61;80.09
64211;BME280;50528;48.514;14.394;2023-04-25T02:35:48;93126.89;;;4.61;80.08
64211;BME280;50528;48.514;14.394;2023-04-25T02:36:22;93123.55;;;4.63;80.07
64211;BME280;50528;48.514;14.394;2023-04-25T02:36:55;93128.36;;;4.64;80.11
64211;BME280;50528;48.514;14.394;2023-04-25T02:37:30;93130.17;;;4.64;79.97
64211;BME280;50528;48.514;14.394;2023-04-25T02:38:03;93129.73;;;4.63;79.99
64211;BME280;50528;48.514;14.394;2023-04-25T02:38:38;93129.29;;;4.64;80.02
64211;BME280;50528;48.514;14.394;2023-04-25T02:39:12;93125.65;;;4.64;79.99
64211;BME280;50528;48.514;14.394;2023-04-25T02:39:45;93124.73;;;4.65;79.95
64211;BME280;50528;48.514;14.394;2023-04-25T02:40:19;93121.76;;;4.65;79.89
64211;BME280;50528;48.514;14.394;2023-04-25T02:40:53;93124.31;;;4.65;79.78
64211;BME280;50528;48.514;14.394;2023-04-25T02:41:26;93122.30;;;4.63;79.79
64211;BME280;50528;48.514;14.394;2023-04-25T02:42:00;93121.23;;;4.62;79.83
64211;BME280;50528;48.514;14.394;2023-04-25T02:42:35;93118.02;;;4.61;79.79
64211;BME280;50528;48.514;14.394;2023-04-25T02:43:09;93117.08;;;4.61;79.78
64211;BME280;50528;48.514;14.394;2023-04-25T02:43:42;93115.56;;;4.60;79.79
64211;BME280;50528;48.514;14.394;2023-04-25T02:44:18;93113.73;;;4.60;79.81
64211;BME280;50528;48.514;14.394;2023-04-25T02:44:52;93113.08;;;4.61;79.75
64211;BME280;50528;48.514;14.394;2023-04-25T02:45:26;93111.42;;;4.62;79.82
64211;BME280;50528;48.514;14.394;2023-04-25T02:45:59;93111.49;;;4.62;79.75
64211;BME280;50528;48.514;14.394;2023-04-25T02:46:32;93107.52;;;4.63;79.79
64211;BME280;50528;48.514;14.394;2023-04-25T02:47:11;93103.18;;;4.65;79.69
64211;BME280;50528;48.514;14.394;2023-04-25T02:47:44;93102.95;;;4.64;79.63
64211;BME280;50528;48.514;14.394;2023-04-25T02:48:21;93105.64;;;4.63;79.64
64211;BME280;50528;48.514;14.394;2023-04-25T02:48:54;93103.89;;;4.62;79.71
64211;BME280;50528;48.514;14.394;2023-04-25T02:49:28;93107.73;;;4.62;79.70
64211;BME280;50528;48.514;14.394;2023-04-25T02:50:01;93106.09;;;4.63;79.70
64211;BME280;50528;48.514;14.394;2023-04-25T02:50:34;93104.44;;;4.63;79.74
64211;BME280;50528;48.514;14.394;2023-04-25T02:51:08;93103.77;;;4.63;79.70
64211;BME280;50528;48.514;14.394;2023-04-25T02:51:41;93105.17;;;4.63;79.64
64211;BME280;50528;48.514;14.394;2023-04-25T02:52:15;93100.91;;;4.64;79.59
64211;BME280;50528;48.514;14.394;2023-04-25T02:52:49;93098.27;;;4.62;79.52
64211;BME280;50528;48.514;14.394;2023-04-25T02:53:26;93101.65;;;4.62;79.43
64211;BME280;50528;48.514;14.394;2023-04-25T02:54:00;93101.38;;;4.62;79.39
64211;BME280;50528;48.514;14.394;2023-04-25T02:54:33;93094.77;;;4.61;79.25
64211;BME280;50528;48.514;14.394;2023-04-25T02:55:07;93098.32;;;4.60;79.21
64211;BME280;50528;48.514;14.394;2023-04-25T02:55:41;93097.11;;;4.59;79.17
64211;BME280;50528;48.514;14.394;2023-04-25T02:56:14;93097.59;;;4.59;79.22
64211;BME280;50528;48.514;14.394;2023-04-25T02:56:48;93097.41;;;4.58;79.22
64211;BME280;50528;48.514;14.394;2023-04-25T02:57:26;93092.33;;;4.55;79.32
64211;BME280;50528;48.514;14.394;2023-04-25T02:57:59;93095.65;;;4.53;79.33
64211;BME280;50528;48.514;14.394;2023-04-25T02:58:48;93096.16;;;4.51;79.35
64211;BME280;50528;48.514;14.394;2023-04-25T02:59:21;93094.30;;;4.50;79.45
64211;BME280;50528;48.514;14.394;2023-04-25T02:59:55;93095.42;;;4.52;79.40
64211;BME280;50528;48.514;14.394;2023-04-25T03:00:28;93096.64;;;4.51;79.40
64211;BME280;50528;48.514;14.394;2023-04-25T03:01:02;93094.55;;;4.49;79.53
64211;BME280;50528;48.514;14.394;2023-04-25T03:01:35;93098.29;;;4.48;79.53
64211;BME280;50528;48.514;14.394;2023-04-25T03:02:09;93096.39;;;4.46;79.58
64211;BME280;50528;48.514;14.394;2023-04-25T03:02:43;93098.59;;;4.45;79.61
64211;BME280;50528;48.514;14.394;2023-04-25T03:03:16;93099.06;;;4.45;79.69
64211;BME280;50528;48.514;14.394;2023-04-25T03:03:51;93096.92;;;4.45;79.69
64211;BME280;50528;48.514;14.394;2023-04-25T03:04:25;93099.23;;;4.45;79.89
64211;BME280;50528;48.514;14.394;2023-04-25T03:04:58;93095.66;;;4.46;79.84
64211;BME280;50528;48.514;14.394;2023-04-25T03:05:32;93098.97;;;4.50;79.88
64211;BME280;50528;48.514;14.394;2023-04-25T03:06:06;93095.89;;;4.48;79.89
64211;BME280;50528;48.514;14.394;2023-04-25T03:06:39;93098.64;;;4.47;80.09